Aérodrome :
LOGIN :

S'inscrire | Disclaimer

   EN    FR    IT 

 










Légende :    VFR   VFR Marginal   IFR   IFR Intensif   IFR Très Intensif
Visi : 
Plafond : 
>= 8 km
>= 3000ft
5 à 8 km
1000 à 3000 ft
1500m à 5 km
500 à 1000 ft
800 à 1500m
200 à 500 ft
< 800m
< 200 ft
Symboles :   Orages  Brouillard  Fortes neiges  Fortes précipitations  Vent > 20 kt
SIGMETs :   Divers  Orages  Givrage  Turbulence  Onde Orograph.  Cendres Volcan.






- Altitude de l'aérodrome : 29 ft
- Code IATA : SVG


ENZV - Sola

DERNIER METAR :
  • 171620Z 18006KT 9999 SCT010 BKN080 07/06 Q1005 TEMPO BKN010

METARs EXPIRÉS :
  • 171550Z 16007KT 9999 FEW010 BKN085 07/06 Q1005 TEMPO BKN008
  • 171520Z 17008KT 9999 FEW010 BKN090 07/06 Q1005 NOSIG
  • 171450Z 16008KT 8000 -DZ FEW005 BKN008 08/07 Q1005 TEMPO SCT008 BKN020
  • 171420Z 17010KT 7000 -DZ SCT004 BKN007 08/07 Q1005 TEMPO BKN004
  • 171350Z 17009KT 7000 3500SW -DZ SCT003 BKN007 08/07 Q1005 TEMPO 4000 -DZ BR BKN003

AMD TAF ENZV
Valide du 17 à 14h jusqu'au 18 à 12h UTC


1714/1812 18010KT 9999 SCT008 BKN020
TEMPO 1715/1718 3000 DZ BKN004
BECMG 1718/1721 VRB05KT
TEMPO 1718/1806 27012KT 4000 SHRA BKN007 SCT012CB
BECMG 1803/1806 28012KT
TEMPO 1806/1812 SHRA BKN012CB



MET'MAP, la Météo Aéronautique d'un coup d'oeil ! - Copyright ORBIFLY Décembre 2007 - Disclaimer

ORBIFLY MET'MAP TEAM :

Programmation & Développement : Alexandra Zaïnal
Sur une idée originale de : Baudouin d'Aumeries
Assistance à la programmation : Marc-Olivier Méhu
Soutien technique & logistique : Manuel Goepfert

Contact : metmap@orbifly.com




SOURCES & CREDITS :

   NOAA